Terminal Aerodrome Forecast
Issued by NWS

Home | Current Version | Previous Version | Text Only | Print | Product List | Glossary On
Versions: 1 2 3 4 5 6 7 8 9 10 11 12 13 14 15 16 17 18 19 20 21 22 23 24 25 26 27 28 29 30 31 32 33 34 35 36 37 38 39 40 41 42 43 44 45
666
FTUS43 KDDC 231120
TAFGCK
TAF
KGCK 231120Z 2312/2412 18011G19KT P6SM SKC
     FM231500 18020G30KT P6SM FEW250
     FM240100 16015G22KT P6SM BKN110 PROB30 2405/2408 4SM -TSRA
      BKN080CB
     FM240900 18012KT P6SM SCT100
     FM241100 20009KT P6SM SCT090=

USA.gov is the U.S. government's official web portal to all federal, state and local government web resources and services.